createdAt,value
2022-08-21T00:00:42.360Z,21.80
2022-08-21T00:05:50.528Z,21.64
2022-08-21T00:10:52.181Z,21.74
2022-08-21T00:15:53.800Z,21.56
2022-08-21T00:20:55.496Z,21.57
2022-08-21T00:25:57.194Z,21.44
2022-08-21T00:30:59.363Z,21.46
2022-08-21T00:36:01.613Z,21.57
2022-08-21T00:41:27.560Z,21.31
2022-08-21T00:46:28.596Z,21.29
2022-08-21T00:51:39.059Z,21.25
2022-08-21T00:56:41.235Z,21.29
2022-08-21T01:01:45.200Z,21.40
2022-08-21T01:06:47.303Z,21.40
2022-08-21T01:11:49.233Z,21.40
2022-08-21T01:16:53.639Z,21.48
2022-08-21T01:21:55.968Z,21.16
2022-08-21T01:26:57.869Z,21.22
2022-08-21T01:32:01.453Z,21.06
2022-08-21T01:37:03.790Z,21.03
2022-08-21T01:42:06.425Z,21.09
2022-08-21T01:47:13.263Z,20.95
2022-08-21T01:52:15.000Z,21.05
2022-08-21T01:57:17.518Z,20.94
2022-08-21T02:02:19.202Z,20.96
2022-08-21T02:07:20.939Z,20.66
2022-08-21T02:12:22.536Z,20.52
2022-08-21T02:17:24.135Z,20.55
2022-08-21T02:22:25.756Z,20.42
2022-08-21T02:27:27.833Z,20.42
2022-08-21T02:32:29.460Z,20.32
2022-08-21T02:37:31.406Z,20.36
2022-08-21T02:42:32.996Z,20.07
2022-08-21T02:47:34.606Z,19.87
2022-08-21T02:52:36.277Z,20.19
2022-08-21T02:57:38.052Z,20.17
2022-08-21T03:02:39.779Z,20.15
2022-08-21T03:07:41.989Z,20.29
2022-08-21T03:12:44.147Z,20.12
2022-08-21T03:17:47.041Z,20.18
2022-08-21T03:22:52.945Z,20.36
2022-08-21T03:27:58.702Z,20.26
2022-08-21T03:33:01.335Z,20.40
2022-08-21T03:38:02.939Z,20.28
2022-08-21T03:43:05.691Z,20.30
2022-08-21T03:48:08.540Z,20.27
2022-08-21T03:53:17.068Z,20.30
2022-08-21T03:58:23.214Z,20.22
2022-08-21T04:03:26.230Z,20.24
2022-08-21T04:08:27.838Z,20.23
2022-08-21T04:13:29.440Z,20.41
2022-08-21T04:18:31.167Z,20.27
2022-08-21T04:23:33.218Z,20.12
2022-08-21T04:28:34.889Z,20.24
2022-08-21T04:33:36.497Z,20.17
2022-08-21T04:38:38.713Z,20.14
2022-08-21T04:43:46.185Z,20.22
2022-08-21T04:48:47.808Z,20.15
2022-08-21T04:54:00.379Z,20.14
2022-08-21T04:59:06.530Z,20.21
2022-08-21T05:04:11.340Z,20.23
2022-08-21T05:09:15.554Z,20.22
2022-08-21T05:14:17.236Z,20.17
2022-08-21T05:19:18.795Z,20.28
2022-08-21T05:24:20.777Z,20.20
2022-08-21T05:29:22.775Z,20.08
2022-08-21T05:34:24.937Z,20.04
2022-08-21T05:39:26.560Z,20.07
2022-08-21T05:44:28.144Z,20.02
2022-08-21T05:49:29.792Z,20.06
2022-08-21T05:54:31.944Z,19.92
2022-08-21T05:59:33.511Z,19.95
2022-08-21T06:04:41.627Z,19.97
2022-08-21T06:09:43.260Z,19.80
2022-08-21T06:14:44.912Z,19.92
2022-08-21T06:19:46.503Z,19.91
2022-08-21T06:24:48.175Z,19.79
2022-08-21T06:29:49.956Z,19.71
2022-08-21T06:34:52.142Z,19.85
2022-08-21T06:39:53.807Z,19.71
2022-08-21T06:44:55.773Z,19.69
2022-08-21T06:49:57.396Z,19.58
2022-08-21T06:54:59.276Z,19.69
2022-08-21T07:00:01.006Z,19.38
2022-08-21T07:05:17.586Z,19.36
2022-08-21T07:10:22.425Z,18.71
2022-08-21T07:15:24.491Z,18.52
2022-08-21T07:20:27.801Z,18.26
2022-08-21T07:25:29.630Z,18.36
2022-08-21T07:30:31.581Z,17.99
2022-08-21T07:35:34.254Z,18.02
2022-08-21T07:40:36.154Z,18.11
2022-08-21T07:45:38.444Z,18.24
2022-08-21T07:50:41.697Z,18.01
2022-08-21T07:55:43.780Z,17.86
2022-08-21T08:00:45.417Z,17.93
2022-08-21T08:05:47.116Z,17.94
2022-08-21T08:10:50.540Z,17.81
2022-08-21T08:15:52.875Z,17.61
2022-08-21T08:20:54.509Z,17.79
2022-08-21T08:25:56.127Z,18.05
2022-08-21T08:30:57.712Z,17.86
2022-08-21T08:36:03.401Z,18.05
2022-08-21T08:41:18.314Z,18.02
2022-08-21T08:46:35.642Z,18.08
2022-08-21T08:51:42.782Z,17.86
2022-08-21T08:56:46.102Z,18.11
2022-08-21T09:01:47.957Z,18.20
2022-08-21T09:07:51.301Z,18.56
2022-08-21T09:12:52.912Z,18.69
2022-08-21T09:18:08.718Z,18.41
2022-08-21T09:23:19.345Z,18.47
2022-08-21T09:28:20.926Z,18.06
2022-08-21T09:33:22.536Z,18.05
2022-08-21T09:38:33.572Z,18.42
2022-08-21T09:43:36.090Z,18.28
2022-08-21T09:48:49.094Z,18.07
2022-08-21T09:54:18.204Z,18.11
2022-08-21T09:59:36.333Z,17.95
2022-08-21T10:04:38.880Z,18.04
2022-08-21T10:09:41.419Z,17.95
2022-08-21T10:14:56.633Z,18.12
2022-08-21T10:20:19.562Z,18.02
2022-08-21T10:25:21.268Z,18.10
2022-08-21T10:30:47.410Z,17.96
2022-08-21T10:36:21.395Z,18.01
2022-08-21T10:41:48.041Z,18.11
2022-08-21T10:47:01.405Z,18.19
2022-08-21T10:52:10.566Z,18.11
2022-08-21T10:57:38.145Z,18.11
2022-08-21T11:02:47.376Z,18.41
2022-08-21T11:07:59.637Z,18.48
2022-08-21T11:13:08.261Z,18.41
2022-08-21T11:18:33.893Z,18.52
2022-08-21T11:23:40.962Z,18.49
2022-08-21T11:29:09.052Z,18.27
2022-08-21T11:34:20.828Z,18.62
2022-08-21T11:39:31.241Z,18.16
2022-08-21T11:44:38.770Z,18.43
2022-08-21T11:50:35.066Z,18.28
2022-08-21T11:55:44.380Z,18.13
2022-08-21T12:00:57.249Z,18.10
2022-08-21T12:06:03.258Z,18.57
2022-08-21T12:11:16.937Z,18.79
2022-08-21T12:16:31.736Z,18.69
2022-08-21T12:21:34.114Z,18.36
2022-08-21T12:26:59.118Z,18.37
2022-08-21T12:32:23.479Z,18.65
2022-08-21T12:37:41.886Z,18.73
2022-08-21T12:42:58.547Z,18.57
2022-08-21T12:48:42.816Z,18.70
2022-08-21T12:53:54.833Z,18.56
2022-08-21T12:59:06.338Z,18.75
2022-08-21T13:04:13.909Z,18.71
2022-08-21T13:09:20.848Z,18.61
2022-08-21T13:14:45.825Z,18.77
2022-08-21T13:20:01.254Z,18.94
2022-08-21T13:25:07.036Z,19.07
2022-08-21T13:30:18.693Z,19.14
2022-08-21T13:35:49.540Z,18.82
2022-08-21T13:40:56.962Z,19.14
2022-08-21T13:45:59.389Z,19.18
2022-08-21T13:51:01.933Z,19.02
2022-08-21T13:56:05.869Z,19.20
2022-08-21T14:01:27.307Z,19.35
2022-08-21T14:06:33.992Z,19.28
2022-08-21T14:11:36.688Z,19.15
2022-08-21T14:16:47.332Z,19.02
2022-08-21T14:21:49.159Z,19.17
2022-08-21T14:27:02.629Z,19.40
2022-08-21T14:32:24.636Z,19.49
2022-08-21T14:37:26.912Z,19.62
2022-08-21T14:42:29.628Z,19.75
2022-08-21T14:47:31.258Z,19.55
2022-08-21T14:52:33.501Z,19.39
2022-08-21T14:57:35.698Z,19.56
2022-08-21T15:02:37.442Z,19.29
2022-08-21T15:07:39.217Z,19.65
2022-08-21T15:12:41.102Z,19.48
2022-08-21T15:17:46.171Z,19.45
2022-08-21T15:22:49.887Z,19.50
2022-08-21T15:27:52.280Z,19.19
2022-08-21T15:32:53.915Z,19.38
2022-08-21T15:37:55.539Z,19.31
2022-08-21T15:43:03.081Z,19.24
2022-08-21T15:48:05.378Z,19.23
2022-08-21T15:53:07.722Z,19.44
2022-08-21T15:58:15.328Z,19.40
2022-08-21T16:03:22.585Z,19.59
2022-08-21T16:08:25.943Z,19.32
2022-08-21T16:13:33.431Z,19.34
2022-08-21T16:18:35.074Z,19.50
2022-08-21T16:23:39.055Z,19.58
2022-08-21T16:28:43.026Z,19.69
2022-08-21T16:33:49.774Z,19.36
2022-08-21T16:38:54.677Z,19.07
2022-08-21T16:43:56.424Z,19.44
2022-08-21T16:48:58.056Z,19.34
2022-08-21T16:54:00.142Z,19.34
2022-08-21T16:59:02.001Z,19.21
2022-08-21T17:04:04.340Z,19.24
2022-08-21T17:09:06.017Z,19.37
2022-08-21T17:14:23.018Z,19.38
2022-08-21T17:19:24.648Z,19.54
2022-08-21T17:24:26.423Z,19.49
2022-08-21T17:29:31.396Z,19.60
2022-08-21T17:34:33.056Z,19.24
2022-08-21T17:39:36.032Z,19.36
2022-08-21T17:44:39.965Z,18.97
2022-08-21T17:49:41.727Z,19.17
2022-08-21T17:54:43.398Z,19.08
2022-08-21T17:59:45.252Z,18.94
2022-08-21T18:04:47.048Z,18.95
2022-08-21T18:09:52.116Z,19.09
2022-08-21T18:14:55.665Z,19.14
2022-08-21T18:19:59.594Z,18.95
2022-08-21T18:25:01.257Z,18.93
2022-08-21T18:30:03.684Z,19.07
2022-08-21T18:35:06.950Z,19.01
2022-08-21T18:40:11.304Z,18.96
2022-08-21T18:45:16.032Z,18.89
2022-08-21T18:50:20.723Z,18.93
2022-08-21T18:55:23.111Z,19.13
2022-08-21T19:00:30.590Z,18.88
2022-08-21T19:05:32.184Z,18.97
2022-08-21T19:10:34.808Z,18.82
2022-08-21T19:15:38.500Z,18.68
2022-08-21T19:20:42.256Z,18.67
2022-08-21T19:25:47.124Z,18.74
2022-08-21T19:31:16.652Z,18.61
2022-08-21T19:36:21.791Z,18.66
2022-08-21T19:41:28.389Z,18.44
2022-08-21T19:46:41.892Z,18.54
2022-08-21T19:51:44.643Z,18.31
2022-08-21T19:56:47.194Z,18.18
2022-08-21T20:01:49.420Z,18.16
2022-08-21T20:06:51.510Z,18.21
2022-08-21T20:11:57.568Z,18.14
2022-08-21T20:17:19.027Z,18.33
2022-08-21T20:22:21.461Z,18.49
2022-08-21T20:27:27.603Z,18.32
2022-08-21T20:32:29.283Z,18.18
2022-08-21T20:37:36.733Z,18.27
2022-08-21T20:42:41.496Z,18.32
2022-08-21T20:47:46.920Z,18.06
2022-08-21T20:53:02.075Z,18.25
2022-08-21T20:58:12.633Z,18.15
2022-08-21T21:03:26.386Z,17.98
2022-08-21T21:08:46.952Z,17.87
2022-08-21T21:14:00.947Z,18.00
2022-08-21T21:19:11.156Z,17.90
2022-08-21T21:24:56.385Z,18.31
2022-08-21T21:30:20.976Z,18.17
2022-08-21T21:35:36.350Z,18.07
2022-08-21T21:41:05.562Z,17.93
2022-08-21T21:46:33.402Z,17.93
2022-08-21T21:51:48.151Z,17.93
2022-08-21T21:57:40.018Z,17.95
2022-08-21T22:03:05.774Z,17.85
2022-08-21T22:08:19.641Z,18.00
2022-08-21T22:13:38.552Z,17.51
2022-08-21T22:24:22.444Z,17.76
2022-08-21T22:29:24.890Z,17.68
2022-08-21T22:34:28.800Z,17.79
2022-08-21T22:39:39.299Z,17.82
2022-08-21T22:44:56.411Z,17.61
2022-08-21T22:55:33.078Z,17.49
2022-08-21T23:01:02.200Z,17.39
2022-08-21T23:06:21.681Z,17.37
2022-08-21T23:11:36.300Z,17.38
2022-08-21T23:16:59.653Z,17.40
2022-08-21T23:22:38.877Z,17.33
2022-08-21T23:27:59.996Z,17.34
2022-08-21T23:33:09.056Z,17.48
2022-08-21T23:38:33.412Z,17.48
2022-08-21T23:44:00.986Z,17.47
2022-08-21T23:49:31.448Z,17.51
2022-08-21T23:54:36.766Z,17.52
2022-08-21T23:59:43.676Z,17.52
